createdAt,value
2024-02-20T00:00:01.598Z,100732.13
2024-02-20T00:00:43.328Z,100744.03
2024-02-20T00:01:25.523Z,100737.56
2024-02-20T00:02:07.702Z,100738.09
2024-02-20T00:02:49.491Z,100730.06
2024-02-20T00:03:31.259Z,100744.53
2024-02-20T00:04:13.113Z,100739.00
2024-02-20T00:04:55.781Z,100721.72
2024-02-20T00:05:37.924Z,100744.31
2024-02-20T00:06:19.926Z,100746.13
2024-02-20T00:07:01.811Z,100744.31
2024-02-20T00:07:43.797Z,100738.34
2024-02-20T00:08:26.031Z,100740.81
2024-02-20T00:09:09.015Z,100720.06
2024-02-20T00:09:50.946Z,100751.28
2024-02-20T00:10:33.070Z,100741.66
2024-02-20T00:11:15.732Z,100744.31
2024-02-20T00:11:57.528Z,100729.22
2024-02-20T00:12:39.981Z,100741.34
2024-02-20T00:13:22.451Z,100743.00
2024-02-20T00:14:05.020Z,100741.34
2024-02-20T00:14:46.764Z,100738.03
2024-02-20T00:15:28.581Z,100727.25
2024-02-20T00:16:10.447Z,100739.69
2024-02-20T00:16:53.820Z,100725.72
2024-02-20T00:17:36.576Z,100724.44
2024-02-20T00:18:18.785Z,100731.06
2024-02-20T00:19:00.757Z,100735.22
2024-02-20T00:19:43.981Z,100735.75
2024-02-20T00:20:25.739Z,100726.28
2024-02-20T00:21:07.504Z,100716.81
2024-02-20T00:21:49.502Z,100720.63
2024-02-20T00:22:31.251Z,100741.88
2024-02-20T00:23:15.410Z,100722.09
2024-02-20T00:23:57.301Z,100714.69
2024-02-20T00:24:39.201Z,100711.13
2024-02-20T00:25:21.564Z,100735.22
2024-02-20T00:26:04.957Z,100708.50
2024-02-20T00:26:46.818Z,100720.44
2024-02-20T00:27:29.857Z,100742.19
2024-02-20T00:28:11.762Z,100729.22
2024-02-20T00:28:53.840Z,100745.00
2024-02-20T00:29:35.610Z,100744.31
2024-02-20T00:30:17.402Z,100721.41
2024-02-20T00:30:59.275Z,100717.06
2024-02-20T00:31:41.061Z,100737.16
2024-02-20T00:32:22.795Z,100734.66
2024-02-20T00:33:04.900Z,100743.28
2024-02-20T00:33:46.912Z,100733.31
2024-02-20T00:34:28.862Z,100721.84
2024-02-20T00:35:10.868Z,100744.56
2024-02-20T00:35:52.817Z,100722.31
2024-02-20T00:36:34.615Z,100740.25
2024-02-20T00:37:16.818Z,100740.13
2024-02-20T00:37:58.901Z,100741.94
2024-02-20T00:38:40.725Z,100741.09
2024-02-20T00:39:22.525Z,100740.25
2024-02-20T00:40:05.179Z,100738.44
2024-02-20T00:40:47.016Z,100729.63
2024-02-20T00:41:28.876Z,100728.50
2024-02-20T00:42:10.786Z,100737.56
2024-02-20T00:42:52.680Z,100739.00
2024-02-20T00:43:34.674Z,100734.06
2024-02-20T00:44:16.735Z,100737.19
2024-02-20T00:45:02.520Z,100742.00
2024-02-20T00:45:45.847Z,100733.38
2024-02-20T00:46:27.566Z,100724.03
2024-02-20T00:47:11.237Z,100738.66
2024-02-20T00:47:53.271Z,100727.56
2024-02-20T00:48:36.456Z,100734.34
2024-02-20T00:49:18.384Z,100733.53
2024-02-20T00:50:00.615Z,100743.66
2024-02-20T00:50:42.524Z,100740.19
2024-02-20T00:51:24.519Z,100754.44
2024-02-20T00:52:06.354Z,100722.56
2024-02-20T00:52:48.131Z,100723.41
2024-02-20T00:53:29.933Z,100741.84
2024-02-20T00:54:12.130Z,100753.47
2024-02-20T00:54:53.915Z,100734.50
2024-02-20T00:55:36.023Z,100762.09
2024-02-20T00:56:18.311Z,100750.81
2024-02-20T00:57:00.167Z,100753.47
2024-02-20T00:57:42.182Z,100752.94
2024-02-20T00:58:24.009Z,100731.03
2024-02-20T00:59:06.148Z,100727.56
2024-02-20T00:59:48.000Z,100744.50
2024-02-20T01:00:29.894Z,100758.94
2024-02-20T01:01:15.206Z,100763.25
2024-02-20T01:01:57.177Z,100744.16
2024-02-20T01:02:39.088Z,100763.78
2024-02-20T01:03:20.901Z,100760.16
2024-02-20T01:04:02.762Z,100761.81
2024-02-20T01:04:45.035Z,100728.63
2024-02-20T01:05:27.099Z,100758.19
2024-02-20T01:06:09.334Z,100756.00
2024-02-20T01:06:51.138Z,100766.13
2024-02-20T01:07:33.217Z,100726.63
2024-02-20T01:08:15.110Z,100741.59
2024-02-20T01:08:56.934Z,100763.34
2024-02-20T01:09:39.021Z,100762.66
2024-02-20T01:10:20.805Z,100760.47
2024-02-20T01:11:03.638Z,100744.69
2024-02-20T01:11:45.423Z,100757.47
2024-02-20T01:12:27.222Z,100737.69
2024-02-20T01:13:09.342Z,100742.97
2024-02-20T01:13:51.174Z,100755.81
2024-02-20T01:14:33.351Z,100732.84
2024-02-20T01:15:15.102Z,100756.41
2024-02-20T01:15:57.337Z,100735.03
2024-02-20T01:16:39.221Z,100758.06
2024-02-20T01:17:21.144Z,100755.09
2024-02-20T01:18:03.005Z,100752.44
2024-02-20T01:18:44.824Z,100757.56
2024-02-20T01:19:26.810Z,100752.44
2024-02-20T01:20:09.311Z,100731.81
2024-02-20T01:20:51.080Z,100755.09
2024-02-20T01:21:32.952Z,100755.22
2024-02-20T01:22:14.739Z,100748.56
2024-02-20T01:22:56.637Z,100756.06
2024-02-20T01:23:38.798Z,100740.78
2024-02-20T01:24:20.665Z,100739.97
2024-02-20T01:25:02.419Z,100734.66
2024-02-20T01:25:44.727Z,100759.75
2024-02-20T01:26:26.384Z,100762.38
2024-02-20T01:27:08.202Z,100759.06
2024-02-20T01:27:49.983Z,100755.44
2024-02-20T01:28:32.719Z,100754.28
2024-02-20T01:29:14.621Z,100752.25
2024-02-20T01:29:56.888Z,100757.78
2024-02-20T01:30:38.812Z,100741.84
2024-02-20T01:31:20.542Z,100768.91
2024-02-20T01:32:02.332Z,100762.78
2024-02-20T01:32:44.595Z,100763.75
2024-02-20T01:33:26.387Z,100764.75
2024-02-20T01:34:08.293Z,100762.53
2024-02-20T01:34:50.940Z,100739.28
2024-02-20T01:35:32.692Z,100764.88
2024-02-20T01:36:14.459Z,100746.47
2024-02-20T01:36:56.694Z,100768.38
2024-02-20T01:37:38.499Z,100744.41
2024-02-20T01:38:20.341Z,100754.06
2024-02-20T01:39:02.577Z,100767.22
2024-02-20T01:39:44.357Z,100755.81
2024-02-20T01:40:26.356Z,100761.41
2024-02-20T01:41:08.235Z,100764.75
2024-02-20T01:41:50.009Z,100737.31
2024-02-20T01:42:31.789Z,100755.44
2024-02-20T01:43:15.499Z,100759.06
2024-02-20T01:43:57.383Z,100758.03
2024-02-20T01:44:40.269Z,100771.47
2024-02-20T01:45:22.192Z,100765.19
2024-02-20T01:46:05.976Z,100763.38
2024-02-20T01:46:48.378Z,100757.72
2024-02-20T01:47:30.165Z,100768.00
2024-02-20T01:48:12.148Z,100772.44
2024-02-20T01:48:54.275Z,100745.25
2024-02-20T01:49:37.905Z,100758.47
2024-02-20T01:50:20.793Z,100771.13
2024-02-20T01:51:03.837Z,100749.38
2024-02-20T01:51:45.718Z,100761.13
2024-02-20T01:52:28.124Z,100743.38
2024-02-20T01:53:10.947Z,100752.22
2024-02-20T01:53:53.860Z,100747.69
2024-02-20T01:54:35.836Z,100764.00
2024-02-20T01:55:21.051Z,100741.56
2024-02-20T01:56:07.148Z,100752.00
2024-02-20T01:56:50.147Z,100770.59
2024-02-20T01:57:32.305Z,100768.94
2024-02-20T01:58:15.101Z,100763.78
2024-02-20T01:58:57.978Z,100754.97
2024-02-20T01:59:39.783Z,100781.13
2024-02-20T02:00:22.851Z,100772.34
2024-02-20T02:01:05.215Z,100749.38
2024-02-20T02:01:47.214Z,100760.50
2024-02-20T02:02:28.954Z,100771.44
2024-02-20T02:03:10.791Z,100771.22
2024-02-20T02:03:53.725Z,100768.44
2024-02-20T02:04:35.804Z,100764.88
2024-02-20T02:05:17.991Z,100767.50
2024-02-20T02:05:59.895Z,100768.13
2024-02-20T02:07:56.266Z,100778.28
2024-02-20T02:08:38.276Z,100750.91
2024-02-20T02:09:20.150Z,100765.03
2024-02-20T02:10:02.401Z,100769.78
2024-02-20T02:10:45.283Z,100783.41
2024-02-20T02:11:27.259Z,100766.41
2024-02-20T02:12:09.404Z,100787.94
2024-02-20T02:12:51.449Z,100788.78
2024-02-20T02:13:33.403Z,100761.63
2024-02-20T02:14:15.163Z,100785.19
2024-02-20T02:14:57.027Z,100790.34
2024-02-20T02:15:38.823Z,100777.47
2024-02-20T02:16:20.632Z,100787.84
2024-02-20T02:17:02.862Z,100768.22
2024-02-20T02:17:44.671Z,100770.84
2024-02-20T02:18:26.554Z,100768.03
2024-02-20T02:19:08.730Z,100776.34
2024-02-20T02:19:50.619Z,100778.72
2024-02-20T02:20:32.369Z,100772.19
2024-02-20T02:21:14.410Z,100793.44
2024-02-20T02:21:56.141Z,100799.72
2024-02-20T02:22:37.987Z,100800.00
2024-02-20T02:23:20.254Z,100791.00
2024-02-20T02:24:02.004Z,100804.31
2024-02-20T02:24:44.762Z,100786.31
2024-02-20T02:25:26.764Z,100783.28
2024-02-20T02:26:11.599Z,100804.59
2024-02-20T02:26:53.312Z,100788.41
2024-02-20T02:27:37.536Z,100809.91
2024-02-20T02:28:19.267Z,100785.25
2024-02-20T02:29:01.348Z,100792.88
2024-02-20T02:29:43.178Z,100766.56
2024-02-20T02:30:24.935Z,100785.25
2024-02-20T02:31:09.440Z,100807.88
2024-02-20T02:31:51.147Z,100817.28
2024-02-20T02:32:33.835Z,100787.63
2024-02-20T02:33:15.817Z,100806.09
2024-02-20T02:33:57.749Z,100814.78
2024-02-20T02:34:39.643Z,100800.78
2024-02-20T02:35:21.573Z,100815.09
2024-02-20T02:36:03.629Z,100811.38
2024-02-20T02:36:45.787Z,100794.38
2024-02-20T02:37:27.534Z,100800.16
2024-02-20T02:38:09.223Z,100819.44
2024-02-20T02:38:50.916Z,100811.00
2024-02-20T02:39:32.644Z,100818.94
2024-02-20T02:40:14.613Z,100822.41
2024-02-20T02:40:56.478Z,100814.75
2024-02-20T02:41:38.194Z,100814.34
2024-02-20T02:42:20.969Z,100801.84
2024-02-20T02:43:02.697Z,100797.28
2024-02-20T02:43:44.503Z,100798.97
2024-02-20T02:44:26.340Z,100821.56
2024-02-20T02:45:09.180Z,100809.38
2024-02-20T02:45:50.985Z,100821.56
2024-02-20T02:46:33.495Z,100808.84
2024-02-20T02:47:15.289Z,100823.09
2024-02-20T02:47:57.049Z,100809.06
2024-02-20T02:48:38.860Z,100819.06
2024-02-20T02:49:21.816Z,100822.84
2024-02-20T02:50:03.981Z,100796.34
2024-02-20T02:50:45.818Z,100826.44
2024-02-20T02:51:27.541Z,100834.09
2024-02-20T02:52:09.273Z,100830.47
2024-02-20T02:52:51.099Z,100822.28
2024-02-20T02:53:32.770Z,100809.53
2024-02-20T02:54:14.626Z,100828.66
2024-02-20T02:54:56.677Z,100828.81
2024-02-20T02:55:38.510Z,100825.47
2024-02-20T02:56:23.636Z,100814.50
2024-02-20T02:57:05.460Z,100833.97
2024-02-20T02:57:47.318Z,100835.47
2024-02-20T02:58:29.206Z,100832.91
2024-02-20T02:59:11.034Z,100837.22
2024-02-20T02:59:52.905Z,100819.06
2024-02-20T03:00:34.816Z,100841.69
2024-02-20T03:01:17.421Z,100831.03
2024-02-20T03:01:59.308Z,100804.09
2024-02-20T03:02:42.110Z,100792.72
2024-02-20T03:03:23.884Z,100837.94
2024-02-20T03:04:06.211Z,100822.56
2024-02-20T03:04:48.061Z,100807.72
2024-02-20T03:05:30.053Z,100817.53
2024-02-20T03:06:11.834Z,100798.41
2024-02-20T03:06:55.001Z,100813.00
2024-02-20T03:07:36.837Z,100828.25
2024-02-20T03:08:18.658Z,100825.53
2024-02-20T03:09:00.411Z,100847.47
2024-02-20T03:09:42.361Z,100817.47
2024-02-20T03:10:25.645Z,100839.94
2024-02-20T03:11:08.355Z,100836.66
2024-02-20T03:11:50.382Z,100848.56
2024-02-20T03:12:35.887Z,100848.56
2024-02-20T03:13:18.128Z,100847.47
2024-02-20T03:13:59.834Z,100849.66
2024-02-20T03:14:41.537Z,100828.88
2024-02-20T03:15:23.424Z,100828.81
2024-02-20T03:16:06.792Z,100855.03
2024-02-20T03:16:48.909Z,100846.16
2024-02-20T03:17:31.592Z,100852.41
2024-02-20T03:18:13.480Z,100850.31
2024-02-20T03:18:55.324Z,100817.84
2024-02-20T03:19:37.650Z,100844.47
2024-02-20T03:20:20.666Z,100844.63
2024-02-20T03:21:03.017Z,100853.94
2024-02-20T03:21:44.769Z,100845.59
2024-02-20T03:22:26.554Z,100839.09
2024-02-20T03:23:08.349Z,100862.56
2024-02-20T03:23:50.081Z,100861.72
2024-02-20T03:24:31.770Z,100867.97
2024-02-20T03:25:16.332Z,100868.13
2024-02-20T03:25:59.616Z,100865.47
2024-02-20T03:26:41.337Z,100867.28
2024-02-20T03:27:23.038Z,100840.28
2024-02-20T03:28:07.316Z,100851.84
2024-02-20T03:28:49.137Z,100849.66
2024-02-20T03:29:33.682Z,100859.22
2024-02-20T03:30:15.488Z,100841.06
2024-02-20T03:30:57.563Z,100863.41
2024-02-20T03:31:40.356Z,100858.81
2024-02-20T03:32:23.777Z,100878.94
2024-02-20T03:33:07.417Z,100873.78
2024-02-20T03:33:49.343Z,100856.44
2024-02-20T03:34:31.151Z,100867.72
2024-02-20T03:35:21.895Z,100884.78
2024-02-20T03:36:03.923Z,100877.25
2024-02-20T03:36:45.946Z,100881.28
2024-02-20T03:37:27.784Z,100879.63
2024-02-20T03:38:10.387Z,100874.47
2024-02-20T03:38:52.083Z,100849.81
2024-02-20T03:39:33.760Z,100877.97
2024-02-20T03:40:16.523Z,100889.78
2024-02-20T03:40:58.367Z,100887.31
2024-02-20T03:41:40.136Z,100863.41
2024-02-20T03:42:22.127Z,100861.59
2024-02-20T03:43:04.938Z,100893.25
2024-02-20T03:43:46.742Z,100897.84
2024-02-20T03:44:28.478Z,100873.28
2024-02-20T03:45:10.492Z,100895.34
2024-02-20T03:45:52.203Z,100896.59
2024-02-20T03:46:34.152Z,100890.75
2024-02-20T03:47:16.175Z,100879.25
2024-02-20T03:47:58.329Z,100885.19
2024-02-20T03:48:40.356Z,100893.25
2024-02-20T03:49:22.345Z,100906.00
2024-02-20T03:50:05.704Z,100905.88
2024-02-20T03:50:47.618Z,100877.44
2024-02-20T03:51:29.349Z,100870.47
2024-02-20T03:52:11.091Z,100907.41
2024-02-20T03:52:52.818Z,100901.97
2024-02-20T03:53:34.558Z,100889.47
2024-02-20T03:54:16.234Z,100879.06
2024-02-20T03:54:57.977Z,100870.72
2024-02-20T03:55:39.737Z,100903.03
2024-02-20T03:56:21.573Z,100908.47
2024-02-20T03:57:04.766Z,100880.41
2024-02-20T03:57:46.457Z,100905.81
2024-02-20T03:58:28.429Z,100910.72
2024-02-20T03:59:10.188Z,100904.59
2024-02-20T03:59:54.892Z,100914.06
2024-02-20T04:00:36.631Z,100912.53
2024-02-20T04:01:18.760Z,100898.22
2024-02-20T04:02:01.180Z,100911.84
2024-02-20T04:02:44.176Z,100914.63
2024-02-20T04:03:26.029Z,100912.59
2024-02-20T04:04:07.788Z,100906.06
2024-02-20T04:04:50.218Z,100885.69
2024-02-20T04:05:34.446Z,100888.34
2024-02-20T04:06:17.027Z,100906.66
2024-02-20T04:06:58.758Z,100893.88
2024-02-20T04:07:41.067Z,100894.47
2024-02-20T04:08:22.878Z,100917.75
2024-02-20T04:09:05.584Z,100901.81
2024-02-20T04:09:47.376Z,100923.03
2024-02-20T04:10:29.148Z,100909.72
2024-02-20T04:11:10.978Z,100899.59
2024-02-20T04:11:52.804Z,100893.38
2024-02-20T04:12:34.499Z,100913.91
2024-02-20T04:13:16.545Z,100923.63
2024-02-20T04:13:58.369Z,100917.09
2024-02-20T04:14:40.110Z,100903.78
2024-02-20T04:15:22.125Z,100913.09
2024-02-20T04:16:04.142Z,100915.31
2024-02-20T04:16:45.981Z,100920.59
2024-02-20T04:17:27.757Z,100907.56
2024-02-20T04:18:09.671Z,100915.63
2024-02-20T04:18:51.651Z,100896.44
2024-02-20T04:19:33.564Z,100918.50
2024-02-20T04:20:15.516Z,100922.94
2024-02-20T04:20:57.299Z,100931.72
2024-02-20T04:21:39.071Z,100924.75
2024-02-20T04:22:20.818Z,100914.09
2024-02-20T04:23:04.549Z,100910.75
2024-02-20T04:23:46.358Z,100913.81
2024-02-20T04:24:28.430Z,100879.25
2024-02-20T04:25:10.327Z,100910.75
2024-02-20T04:25:52.234Z,100914.78
2024-02-20T04:26:34.036Z,100909.38
2024-02-20T04:27:15.845Z,100907.31
2024-02-20T04:27:58.990Z,100921.47
2024-02-20T04:28:40.889Z,100933.66
2024-02-20T04:29:22.718Z,100943.41
2024-02-20T04:30:05.591Z,100931.63
2024-02-20T04:30:47.306Z,100939.53
2024-02-20T04:31:29.099Z,100927.63
2024-02-20T04:32:10.882Z,100939.81
2024-02-20T04:32:52.901Z,100924.28
2024-02-20T04:33:34.772Z,100945.50
2024-02-20T04:34:16.601Z,100940.22
2024-02-20T04:34:58.829Z,100929.81
2024-02-20T04:35:40.700Z,100921.22
2024-02-20T04:36:23.617Z,100936.34
2024-02-20T04:37:05.357Z,100907.88
2024-02-20T04:37:48.934Z,100926.66
2024-02-20T04:38:30.821Z,100918.16
2024-02-20T04:39:12.579Z,100946.78
2024-02-20T04:39:54.384Z,100928.59
2024-02-20T04:40:36.167Z,100943.44
2024-02-20T04:41:25.772Z,100941.78
2024-02-20T04:42:07.457Z,100950.69
2024-02-20T04:42:49.134Z,100943.34
2024-02-20T04:43:30.881Z,100939.84
2024-02-20T04:44:12.642Z,100933.91
2024-02-20T04:44:54.370Z,100951.81
2024-02-20T04:45:36.338Z,100943.50
2024-02-20T04:46:18.065Z,100938.75
2024-02-20T04:47:01.303Z,100953.34
2024-02-20T04:47:43.054Z,100932.53
2024-02-20T04:48:24.830Z,100955.19
2024-02-20T04:49:06.603Z,100957.81
2024-02-20T04:49:48.334Z,100960.59
2024-02-20T04:50:30.081Z,100931.53
2024-02-20T04:51:11.749Z,100956.56
2024-02-20T04:51:53.463Z,100940.75
2024-02-20T04:52:35.470Z,100947.41
2024-02-20T04:53:17.259Z,100958.25
2024-02-20T04:53:58.980Z,100962.13
2024-02-20T04:54:40.667Z,100960.03
2024-02-20T04:55:22.503Z,100957.09
2024-02-20T04:56:04.516Z,100954.31
2024-02-20T04:56:46.191Z,100965.72
2024-02-20T04:57:27.864Z,100960.59
2024-02-20T04:58:10.715Z,100946.56
2024-02-20T04:58:52.607Z,100937.38
2024-02-20T04:59:34.413Z,100953.38
2024-02-20T05:00:17.905Z,100937.53
2024-02-20T05:00:59.786Z,100934.34
2024-02-20T05:01:41.714Z,100945.88
2024-02-20T05:02:23.574Z,100966.69
2024-02-20T05:03:05.924Z,100961.16
2024-02-20T05:03:47.875Z,100977.13
2024-02-20T05:04:29.903Z,100947.97
2024-02-20T05:05:12.002Z,100959.47
2024-02-20T05:05:53.789Z,100957.81
2024-02-20T05:06:35.561Z,100953.06
2024-02-20T05:07:17.503Z,100941.13
2024-02-20T05:07:59.518Z,100935.31
2024-02-20T05:08:41.300Z,100965.16
2024-02-20T05:09:23.061Z,100960.88
2024-02-20T05:10:08.458Z,100959.19
2024-02-20T05:10:50.373Z,100974.75
2024-02-20T05:11:32.536Z,100958.22
2024-02-20T05:12:14.577Z,100968.78
2024-02-20T05:12:56.316Z,100953.50
2024-02-20T05:13:38.090Z,100972.41
2024-02-20T05:14:19.861Z,100973.53
2024-02-20T05:15:01.549Z,100945.16
2024-02-20T05:15:43.372Z,100967.94
2024-02-20T05:16:25.204Z,100967.94
2024-02-20T05:17:06.916Z,100949.75
2024-02-20T05:17:48.628Z,100973.66
2024-02-20T05:18:30.584Z,100952.13
2024-02-20T05:19:12.619Z,100956.53
2024-02-20T05:19:54.518Z,100968.66
2024-02-20T05:20:36.238Z,100962.94
2024-02-20T05:21:17.910Z,100955.28
2024-02-20T05:21:59.890Z,100971.56
2024-02-20T05:22:41.665Z,100950.75
2024-02-20T05:23:23.400Z,100969.91
2024-02-20T05:24:05.382Z,100950.03
2024-02-20T05:24:47.560Z,100952.69
2024-02-20T05:25:29.257Z,100951.44
2024-02-20T05:26:11.050Z,100956.03
2024-02-20T05:26:52.818Z,100955.47
2024-02-20T05:27:34.626Z,100974.91
2024-02-20T05:28:16.624Z,100952.00
2024-02-20T05:28:58.360Z,100966.28
2024-02-20T05:29:40.197Z,100941.31
2024-02-20T05:30:22.008Z,100968.50
2024-02-20T05:31:31.456Z,100937.94
2024-02-20T05:32:13.250Z,100940.44
2024-02-20T05:32:55.189Z,100975.19
2024-02-20T05:33:37.016Z,100951.56
2024-02-20T05:34:18.936Z,100971.84
2024-02-20T05:35:00.838Z,100946.69
2024-02-20T05:35:44.031Z,100977.00
2024-02-20T05:36:34.658Z,100978.25
2024-02-20T05:37:16.604Z,100968.94
2024-02-20T05:38:01.257Z,100973.53
2024-02-20T05:38:42.984Z,100961.84
2024-02-20T05:39:26.497Z,100951.59
2024-02-20T05:40:13.455Z,100967.97
2024-02-20T05:40:56.567Z,100970.47
2024-02-20T05:41:38.249Z,100971.72
2024-02-20T05:42:20.025Z,100967.59
2024-02-20T05:43:02.078Z,100981.47
2024-02-20T05:43:43.890Z,100949.50
2024-02-20T05:44:25.811Z,100980.63
2024-02-20T05:45:09.007Z,100966.69
2024-02-20T05:45:50.733Z,100975.91
2024-02-20T05:46:33.641Z,100971.44
2024-02-20T05:47:15.559Z,100990.25
2024-02-20T05:47:57.541Z,100961.31
2024-02-20T05:48:39.374Z,100991.63
2024-02-20T05:49:21.576Z,100964.91
2024-02-20T05:50:03.927Z,100957.00
2024-02-20T05:50:45.887Z,100983.25
2024-02-20T05:51:29.215Z,100967.97
2024-02-20T05:52:13.910Z,100975.63
2024-02-20T05:52:56.885Z,100984.50
2024-02-20T05:53:38.601Z,100966.28
2024-02-20T05:54:20.670Z,100942.13
2024-02-20T05:55:02.502Z,100989.25
2024-02-20T05:55:44.253Z,100985.91
2024-02-20T05:56:26.332Z,100985.47
2024-02-20T05:57:08.061Z,100992.16
2024-02-20T05:57:50.225Z,100992.31
2024-02-20T05:58:32.473Z,100989.94
2024-02-20T05:59:17.000Z,100973.09
2024-02-20T05:59:58.766Z,100980.03
2024-02-20T06:00:40.725Z,100984.63
2024-02-20T06:01:22.586Z,100967.66
2024-02-20T06:02:04.605Z,100997.97
2024-02-20T06:02:47.021Z,100995.31
2024-02-20T06:03:28.919Z,100992.94
2024-02-20T06:04:10.772Z,100973.78
2024-02-20T06:04:53.005Z,100981.81
2024-02-20T06:05:35.002Z,100997.41
2024-02-20T06:06:17.058Z,101000.59
2024-02-20T06:06:58.918Z,100979.03
2024-02-20T06:07:40.778Z,101008.38
2024-02-20T06:08:24.786Z,101002.94
2024-02-20T06:09:06.558Z,101006.00
2024-02-20T06:09:48.325Z,100989.16
2024-02-20T06:10:30.185Z,101008.09
2024-02-20T06:11:19.719Z,101008.91
2024-02-20T06:12:01.711Z,101011.00
2024-02-20T06:12:43.456Z,101016.56
2024-02-20T06:13:25.178Z,101008.34
2024-02-20T06:14:07.573Z,101008.47
2024-02-20T06:14:49.408Z,101009.88
2024-02-20T06:15:31.229Z,100999.56
2024-02-20T06:16:13.307Z,101019.88
2024-02-20T06:16:55.107Z,101022.81
2024-02-20T06:17:36.911Z,101024.91
2024-02-20T06:18:21.423Z,101004.91
2024-02-20T06:19:03.285Z,101017.69
2024-02-20T06:19:45.232Z,101006.47
2024-02-20T06:20:27.083Z,100999.66
2024-02-20T06:21:10.277Z,101027.72
2024-02-20T06:21:52.180Z,100936.41
2024-02-20T06:22:33.989Z,101012.16
2024-02-20T06:23:16.047Z,101024.25
2024-02-20T06:23:57.745Z,101026.22
2024-02-20T06:24:39.520Z,101019.97
2024-02-20T06:25:21.275Z,101030.81
2024-02-20T06:26:04.036Z,101017.50
2024-02-20T06:26:45.792Z,101004.41
2024-02-20T06:27:27.607Z,101024.88
2024-02-20T06:28:10.589Z,101022.50
2024-02-20T06:28:52.775Z,101018.06
2024-02-20T06:29:37.147Z,101024.69
2024-02-20T06:30:19.256Z,101015.91
2024-02-20T06:31:04.497Z,101024.44
2024-02-20T06:31:50.464Z,101034.53
2024-02-20T06:32:34.203Z,101011.75
2024-02-20T06:33:17.264Z,101019.41
2024-02-20T06:33:59.212Z,101016.59
2024-02-20T06:34:42.838Z,101020.91
2024-02-20T06:35:24.662Z,101030.09
2024-02-20T06:36:06.763Z,101036.22
2024-02-20T06:36:48.461Z,101015.50
2024-02-20T06:37:30.296Z,101035.50
2024-02-20T06:38:12.102Z,101009.78
2024-02-20T06:38:53.841Z,101021.34
2024-02-20T06:39:35.700Z,101037.44
2024-02-20T06:40:17.570Z,101039.53
2024-02-20T06:41:00.808Z,101036.34
2024-02-20T06:41:42.539Z,101021.34
2024-02-20T06:42:24.236Z,101042.03
2024-02-20T06:43:06.018Z,101039.25
2024-02-20T06:43:47.871Z,101000.75
2024-02-20T06:44:29.687Z,101027.72
2024-02-20T06:45:13.107Z,101023.28
2024-02-20T06:45:55.474Z,101052.47
2024-02-20T06:46:43.561Z,101041.38
2024-02-20T06:47:25.409Z,101052.47
2024-02-20T06:48:08.329Z,101043.88
2024-02-20T06:48:50.251Z,101023.84
2024-02-20T06:49:32.095Z,101052.75
2024-02-20T06:50:14.308Z,101057.91
2024-02-20T06:50:56.206Z,101062.94
2024-02-20T06:51:37.922Z,101050.25
2024-02-20T06:52:20.296Z,101060.72
2024-02-20T06:53:02.039Z,101053.03
2024-02-20T06:53:46.566Z,101054.19
2024-02-20T06:54:29.610Z,101039.19
2024-02-20T06:55:11.476Z,101058.63
2024-02-20T06:55:53.308Z,101056.41
2024-02-20T06:56:35.089Z,101056.97
2024-02-20T06:57:16.811Z,101059.75
2024-02-20T06:57:59.898Z,101060.31
2024-02-20T06:58:41.862Z,101030.56
2024-02-20T06:59:23.612Z,101046.53
2024-02-20T07:00:06.034Z,101062.94
2024-02-20T07:00:48.444Z,101061.13
2024-02-20T07:01:32.237Z,101047.63
2024-02-20T07:02:14.202Z,101056.53
2024-02-20T07:02:56.198Z,101056.66
2024-02-20T07:03:37.969Z,101046.66
2024-02-20T07:04:19.734Z,101038.88
2024-02-20T07:05:01.592Z,101054.44
2024-02-20T07:05:43.678Z,101045.56
2024-02-20T07:06:25.921Z,101042.34
2024-02-20T07:07:07.702Z,101067.25
2024-02-20T07:07:49.990Z,101027.91
2024-02-20T07:08:31.746Z,101054.03
2024-02-20T07:09:14.740Z,101051.69
2024-02-20T07:09:56.412Z,101065.03
2024-02-20T07:10:38.523Z,101077.28
2024-02-20T07:11:20.479Z,101055.00
2024-02-20T07:12:02.600Z,101047.22
2024-02-20T07:12:44.499Z,101045.03
2024-02-20T07:13:26.395Z,101070.19
2024-02-20T07:14:08.162Z,101080.75
2024-02-20T07:14:49.931Z,101054.19
2024-02-20T07:15:31.759Z,101083.66
2024-02-20T07:16:15.060Z,101072.25
2024-02-20T07:16:56.841Z,101059.75
2024-02-20T07:17:38.717Z,101080.63
2024-02-20T07:18:20.644Z,101070.03
2024-02-20T07:19:03.993Z,101078.22
2024-02-20T07:19:45.944Z,101065.84
2024-02-20T07:20:27.900Z,101052.34
2024-02-20T07:21:09.773Z,101082.97
2024-02-20T07:21:51.477Z,101047.09
2024-02-20T07:22:33.930Z,101049.03
2024-02-20T07:23:15.961Z,101074.75
2024-02-20T07:23:57.728Z,101080.03
2024-02-20T07:24:39.461Z,101069.34
2024-02-20T07:25:22.802Z,101080.06
2024-02-20T07:26:04.960Z,101078.13
2024-02-20T07:26:47.420Z,101079.22
2024-02-20T07:27:29.252Z,101044.75
2024-02-20T07:28:12.435Z,101050.28
2024-02-20T07:28:54.232Z,101070.19
2024-02-20T07:29:35.957Z,101047.38
2024-02-20T07:30:18.047Z,101069.63
2024-02-20T07:30:59.942Z,101073.94
2024-02-20T07:31:41.835Z,101062.63
2024-02-20T07:32:23.601Z,101059.16
2024-02-20T07:33:05.584Z,101077.00
2024-02-20T07:33:50.832Z,101057.66
2024-02-20T07:34:42.256Z,101081.03
2024-02-20T07:35:24.395Z,101088.53
2024-02-20T07:36:06.506Z,101078.69
2024-02-20T07:36:49.851Z,101075.47
2024-02-20T07:37:31.965Z,101064.72
2024-02-20T07:38:13.741Z,101085.75
2024-02-20T07:38:55.678Z,101088.13
2024-02-20T07:39:37.896Z,101086.88
2024-02-20T07:40:20.530Z,101086.72
2024-02-20T07:41:04.409Z,101070.34
2024-02-20T07:41:46.366Z,101087.28
2024-02-20T07:42:28.145Z,101079.09
2024-02-20T07:43:09.867Z,101054.31
2024-02-20T07:43:51.677Z,101072.00
2024-02-20T07:44:33.395Z,101087.84
2024-02-20T07:45:15.172Z,101091.03
2024-02-20T07:45:56.996Z,101093.53
2024-02-20T07:46:38.867Z,101075.84
2024-02-20T07:47:20.745Z,101094.25
2024-02-20T07:48:02.524Z,101073.22
2024-02-20T07:48:44.481Z,101068.34
2024-02-20T07:49:26.533Z,101067.53
2024-02-20T07:50:08.907Z,101073.38
2024-02-20T07:50:50.810Z,101066.28
2024-02-20T07:51:34.619Z,101091.97
2024-02-20T07:52:16.642Z,101075.56
2024-02-20T07:52:58.397Z,101086.56
2024-02-20T07:53:40.199Z,101078.78
2024-02-20T07:54:21.960Z,101086.81
2024-02-20T07:55:04.371Z,101077.06
2024-02-20T07:55:46.564Z,101094.97
2024-02-20T07:56:30.410Z,101096.59
2024-02-20T07:57:12.334Z,101067.66
2024-02-20T07:57:54.219Z,101096.97
2024-02-20T07:58:44.402Z,101088.00
2024-02-20T07:59:26.917Z,101099.34
2024-02-20T08:00:12.477Z,101101.94
2024-02-20T08:00:55.762Z,101063.84
2024-02-20T08:01:38.162Z,101082.19
2024-02-20T08:02:19.989Z,101093.84
2024-02-20T08:03:01.817Z,101098.13
2024-02-20T08:03:44.763Z,101070.31